createdAt,value
2023-04-05T00:01:12.582Z,3.70
2023-04-05T00:03:42.977Z,3.40
2023-04-05T00:06:16.612Z,3.70
2023-04-05T00:08:49.814Z,3.80
2023-04-05T00:11:18.251Z,3.90
2023-04-05T00:13:46.275Z,3.47
2023-04-05T00:16:14.403Z,4.20
2023-04-05T00:18:46.243Z,3.57
2023-04-05T00:21:14.570Z,3.60
2023-04-05T00:23:45.082Z,4.17
2023-04-05T00:26:13.210Z,3.90
2023-04-05T00:28:45.668Z,3.07
2023-04-05T00:31:13.787Z,3.60
2023-04-05T00:33:43.414Z,3.70
2023-04-05T00:36:13.012Z,3.60
2023-04-05T00:38:42.996Z,3.83
2023-04-05T00:41:11.920Z,3.80
2023-04-05T00:43:40.983Z,4.10
2023-04-05T00:46:09.871Z,4.13
2023-04-05T00:48:40.562Z,3.63
2023-04-05T00:51:12.394Z,3.87
2023-04-05T00:53:43.025Z,3.63
2023-04-05T00:56:13.592Z,3.90
2023-04-05T00:58:42.454Z,3.50
2023-04-05T01:01:17.835Z,3.60
2023-04-05T01:03:52.280Z,3.80
2023-04-05T01:06:37.999Z,3.57
2023-04-05T01:09:18.907Z,3.57
2023-04-05T01:11:49.556Z,3.63
2023-04-05T01:14:17.649Z,3.93
2023-04-05T01:16:49.437Z,3.97
2023-04-05T01:19:17.585Z,3.57
2023-04-05T01:22:31.971Z,4.00
2023-04-05T01:25:44.829Z,3.27
2023-04-05T01:28:50.051Z,3.27
2023-04-05T01:31:27.839Z,3.00
2023-04-05T01:34:03.262Z,3.30
2023-04-05T01:36:40.532Z,3.13
2023-04-05T01:39:12.575Z,3.67
2023-04-05T01:41:41.182Z,2.87
2023-04-05T01:44:09.357Z,2.70
2023-04-05T01:46:38.918Z,3.50
2023-04-05T01:49:07.049Z,3.60
2023-04-05T01:51:35.711Z,2.97
2023-04-05T01:54:03.817Z,3.30
2023-04-05T01:56:31.857Z,3.23
2023-04-05T01:58:59.940Z,3.40
2023-04-05T02:01:28.172Z,3.43
2023-04-05T02:03:57.595Z,3.10
2023-04-05T02:06:27.630Z,3.77
2023-04-05T02:08:55.940Z,3.33
2023-04-05T02:11:24.084Z,3.40
2023-04-05T02:13:52.124Z,3.40
2023-04-05T02:16:20.270Z,3.27
2023-04-05T02:18:50.925Z,2.93
2023-04-05T02:21:21.781Z,3.13
2023-04-05T02:23:49.863Z,3.43
2023-04-05T02:26:19.102Z,3.30
2023-04-05T02:28:47.251Z,3.63
2023-04-05T02:31:15.757Z,3.63
2023-04-05T02:33:44.003Z,3.57
2023-04-05T02:36:14.333Z,3.47
2023-04-05T02:38:43.747Z,3.67
2023-04-05T02:41:12.663Z,3.60
2023-04-05T02:43:41.108Z,3.30
2023-04-05T02:46:09.203Z,3.20
2023-04-05T02:48:41.187Z,3.33
2023-04-05T02:51:10.588Z,3.13
2023-04-05T02:53:40.456Z,2.90
2023-04-05T02:56:14.330Z,2.90
2023-04-05T02:58:45.841Z,3.33
2023-04-05T03:01:14.536Z,3.30
2023-04-05T03:03:43.317Z,3.20
2023-04-05T03:06:11.794Z,3.60
2023-04-05T03:08:45.317Z,3.30
2023-04-05T03:11:16.962Z,3.07
2023-04-05T03:13:49.261Z,3.80
2023-04-05T03:16:30.074Z,2.93
2023-04-05T03:19:02.399Z,3.70
2023-04-05T03:21:30.701Z,3.00
2023-04-05T03:24:08.084Z,3.30
2023-04-05T03:26:44.228Z,3.63
2023-04-05T03:29:14.020Z,3.50
2023-04-05T03:31:42.218Z,3.30
2023-04-05T03:34:12.169Z,3.03
2023-04-05T03:36:46.008Z,2.97
2023-04-05T03:39:27.562Z,3.17
2023-04-05T03:41:58.064Z,3.53
2023-04-05T03:44:27.502Z,3.37
2023-04-05T03:46:55.823Z,3.00
2023-04-05T03:49:24.580Z,3.40
2023-04-05T03:51:52.820Z,3.73
2023-04-05T03:54:21.904Z,3.57
2023-04-05T03:56:52.770Z,3.53
2023-04-05T03:59:22.296Z,3.40
2023-04-05T04:01:50.766Z,3.93
2023-04-05T04:04:21.094Z,4.07
2023-04-05T04:06:49.885Z,4.10
2023-04-05T04:09:22.890Z,3.37
2023-04-05T04:11:51.268Z,3.53
2023-04-05T04:14:23.749Z,3.70
2023-04-05T04:17:03.833Z,4.07
2023-04-05T04:19:40.874Z,3.80
2023-04-05T04:22:33.371Z,3.77
2023-04-05T04:25:30.721Z,4.00
2023-04-05T04:28:06.647Z,3.30
2023-04-05T04:30:52.953Z,3.57
2023-04-05T04:33:35.528Z,3.70
2023-04-05T04:36:36.279Z,3.97
2023-04-05T04:39:39.706Z,4.03
2023-04-05T04:42:26.519Z,3.70
2023-04-05T04:45:15.881Z,3.53
2023-04-05T04:48:08.564Z,3.90
2023-04-05T04:50:57.330Z,4.50
2023-04-05T04:53:25.445Z,3.53
2023-04-05T04:55:55.097Z,3.63
2023-04-05T04:58:23.247Z,3.47
2023-04-05T05:01:01.288Z,3.70
2023-04-05T05:03:32.198Z,3.80
2023-04-05T05:06:00.181Z,4.50
2023-04-05T05:08:32.347Z,3.70
2023-04-05T05:11:01.119Z,3.80
2023-04-05T05:13:29.789Z,3.80
2023-04-05T05:18:53.260Z,3.67
2023-04-05T05:21:22.620Z,3.53
2023-04-05T05:23:55.256Z,3.63
2023-04-05T05:26:23.783Z,3.47
2023-04-05T05:28:53.204Z,3.97
2023-04-05T05:31:22.859Z,3.80
2023-04-05T05:33:52.482Z,3.13
2023-04-05T05:36:20.742Z,3.97
2023-04-05T05:38:49.094Z,3.70
2023-04-05T05:41:17.516Z,4.27
2023-04-05T05:43:45.974Z,3.63
2023-04-05T05:46:14.542Z,3.63
2023-04-05T05:48:43.160Z,4.17
2023-04-05T05:51:14.304Z,4.00
2023-04-05T05:53:42.881Z,4.37
2023-04-05T05:56:11.291Z,4.10
2023-04-05T05:58:41.001Z,4.43
2023-04-05T06:01:11.972Z,5.00
2023-04-05T06:03:40.478Z,4.80
2023-04-05T06:06:11.573Z,4.90
2023-04-05T06:08:42.791Z,5.20
2023-04-05T06:11:19.942Z,4.50
2023-04-05T06:13:48.286Z,4.90
2023-04-05T06:16:16.704Z,4.40
2023-04-05T06:18:45.999Z,4.57
2023-04-05T06:21:14.049Z,4.40
2023-04-05T06:23:44.067Z,4.27
2023-04-05T06:26:18.860Z,3.90
2023-04-05T06:28:48.048Z,5.07
2023-04-05T06:31:17.755Z,4.97
2023-04-05T06:33:46.213Z,5.33
2023-04-05T06:36:15.596Z,4.70
2023-04-05T06:38:45.044Z,3.80
2023-04-05T06:41:13.610Z,5.10
2023-04-05T06:43:42.406Z,4.20
2023-04-05T06:46:12.565Z,3.90
2023-04-05T06:48:41.433Z,4.80
2023-04-05T06:51:09.937Z,4.73
2023-04-05T06:53:37.996Z,5.57
2023-04-05T06:56:09.814Z,4.80
2023-04-05T06:58:38.742Z,4.40
2023-04-05T07:01:07.921Z,4.37
2023-04-05T07:03:37.308Z,4.60
2023-04-05T07:06:06.248Z,4.17
2023-04-05T07:08:34.778Z,3.97
2023-04-05T07:11:03.288Z,3.67
2023-04-05T07:13:33.821Z,4.53
2023-04-05T07:16:03.676Z,4.90
2023-04-05T07:18:32.499Z,4.93
2023-04-05T07:21:03.822Z,7.00
2023-04-05T07:23:33.181Z,4.63
2023-04-05T07:26:04.811Z,4.13
2023-04-05T07:28:36.510Z,4.50
2023-04-05T07:31:06.926Z,4.03
2023-04-05T07:33:38.430Z,4.60
2023-04-05T07:36:08.026Z,4.10
2023-04-05T07:38:39.323Z,4.60
2023-04-05T07:41:09.024Z,3.93
2023-04-05T07:43:40.051Z,3.73
2023-04-05T07:46:09.538Z,4.13
2023-04-05T07:48:37.654Z,3.93
2023-04-05T07:51:08.518Z,4.47
2023-04-05T07:53:37.650Z,4.40
2023-04-05T07:56:06.840Z,4.53
2023-04-05T07:58:35.740Z,3.90
2023-04-05T08:01:06.853Z,4.70
2023-04-05T08:03:36.176Z,4.80
2023-04-05T08:06:13.144Z,4.33
2023-04-05T08:08:41.567Z,5.10
2023-04-05T08:11:10.461Z,4.70
2023-04-05T08:13:40.587Z,4.20
2023-04-05T08:16:11.885Z,4.10
2023-04-05T08:18:41.170Z,4.60
2023-04-05T08:21:09.364Z,4.80
2023-04-05T08:23:37.484Z,4.23
2023-04-05T08:26:07.648Z,4.83
2023-04-05T08:28:36.519Z,4.40
2023-04-05T08:31:05.598Z,4.80
2023-04-05T08:33:35.261Z,4.53
2023-04-05T08:36:07.479Z,3.30
2023-04-05T08:38:35.880Z,3.43
2023-04-05T08:41:19.085Z,3.60
2023-04-05T08:43:59.060Z,3.53
2023-04-05T08:46:31.134Z,3.20
2023-04-05T08:49:05.490Z,2.73
2023-04-05T08:51:34.092Z,3.17
2023-04-05T08:54:02.950Z,2.90
2023-04-05T08:56:35.077Z,3.33
2023-04-05T08:59:07.192Z,3.73
2023-04-05T09:01:40.629Z,3.90
2023-04-05T09:04:16.732Z,3.50
2023-04-05T09:06:46.317Z,3.33
2023-04-05T09:09:16.320Z,3.63
2023-04-05T09:11:45.682Z,3.87
2023-04-05T09:14:15.369Z,3.87
2023-04-05T09:16:44.120Z,3.60
2023-04-05T09:19:13.647Z,3.60
2023-04-05T09:22:02.557Z,3.37
2023-04-05T09:24:36.887Z,2.90
2023-04-05T09:27:07.201Z,2.70
2023-04-05T09:29:35.776Z,2.60
2023-04-05T09:32:08.891Z,2.93
2023-04-05T09:34:39.613Z,2.90
2023-04-05T09:37:16.244Z,3.17
2023-04-05T09:39:45.652Z,3.03
2023-04-05T09:42:16.469Z,2.73
2023-04-05T09:44:52.371Z,2.90
2023-04-05T09:47:22.158Z,3.73
2023-04-05T09:49:55.851Z,2.60
2023-04-05T09:52:26.841Z,2.83
2023-04-05T09:54:56.922Z,3.20
2023-04-05T09:57:27.420Z,4.10
2023-04-05T09:59:57.304Z,3.43
2023-04-05T10:02:26.485Z,3.67
2023-04-05T10:04:56.202Z,3.93
2023-04-05T10:07:24.855Z,3.57
2023-04-05T10:09:53.624Z,3.60
2023-04-05T10:12:27.684Z,3.80
2023-04-05T10:14:56.864Z,3.47
2023-04-05T10:17:29.536Z,3.50
2023-04-05T10:20:15.163Z,3.30
2023-04-05T10:23:07.938Z,3.47
2023-04-05T10:25:55.605Z,4.23
2023-04-05T10:28:32.779Z,3.87
2023-04-05T10:31:13.261Z,3.77
2023-04-05T10:33:48.029Z,3.67
2023-04-05T10:36:37.949Z,3.70
2023-04-05T10:39:13.515Z,3.50
2023-04-05T10:41:48.358Z,3.70
2023-04-05T10:44:26.176Z,3.80
2023-04-05T10:46:56.935Z,4.23
2023-04-05T10:49:37.241Z,3.60
2023-04-05T10:52:07.988Z,3.27
2023-04-05T10:54:38.495Z,3.90
2023-04-05T10:57:10.818Z,3.30
2023-04-05T10:59:44.930Z,3.47
2023-04-05T11:02:14.743Z,3.93
2023-04-05T11:04:43.740Z,3.80
2023-04-05T11:07:16.493Z,4.47
2023-04-05T11:09:57.164Z,3.90
2023-04-05T11:13:06.768Z,3.43
2023-04-05T11:15:36.763Z,4.03
2023-04-05T11:18:13.212Z,3.47
2023-04-05T11:20:52.609Z,3.50
2023-04-05T11:23:25.791Z,3.57
2023-04-05T11:26:00.117Z,3.90
2023-04-05T11:28:37.598Z,4.00
2023-04-05T11:31:15.469Z,3.60
2023-04-05T11:34:00.171Z,3.43
2023-04-05T11:36:38.271Z,4.10
2023-04-05T11:39:27.312Z,3.97
2023-04-05T11:42:00.290Z,3.50
2023-04-05T11:44:29.233Z,3.60
2023-04-05T11:47:00.019Z,3.87
2023-04-05T11:49:29.385Z,3.57
2023-04-05T11:54:53.969Z,3.30
2023-04-05T11:57:25.015Z,3.40
2023-04-05T11:59:55.100Z,4.17
2023-04-05T12:02:24.011Z,3.20
2023-04-05T12:04:57.667Z,4.33
2023-04-05T12:07:30.482Z,3.70
2023-04-05T12:10:03.294Z,3.70
2023-04-05T12:12:36.376Z,3.80
2023-04-05T12:15:06.455Z,3.53
2023-04-05T12:17:47.177Z,4.20
2023-04-05T12:20:19.299Z,3.77
2023-04-05T12:22:49.949Z,4.07
2023-04-05T12:25:23.554Z,3.73
2023-04-05T12:27:51.783Z,3.90
2023-04-05T12:30:22.440Z,3.80
2023-04-05T12:32:53.740Z,4.03
2023-04-05T12:35:24.383Z,3.63
2023-04-05T12:37:52.946Z,4.03
2023-04-05T12:40:24.804Z,3.10
2023-04-05T12:42:53.180Z,3.80
2023-04-05T12:45:25.018Z,3.93
2023-04-05T12:47:57.277Z,3.97
2023-04-05T12:50:29.376Z,3.80
2023-04-05T12:53:00.051Z,3.93
2023-04-05T12:55:31.354Z,4.00
2023-04-05T12:58:01.872Z,3.87
2023-04-05T13:00:31.530Z,3.80
2023-04-05T13:03:01.020Z,4.37
2023-04-05T13:05:31.670Z,3.60
2023-04-05T13:08:00.525Z,4.07
2023-04-05T13:10:30.380Z,3.63
2023-04-05T13:12:58.449Z,3.73
2023-04-05T13:15:27.170Z,3.87
2023-04-05T13:17:55.412Z,3.63
2023-04-05T13:20:23.788Z,4.17
2023-04-05T13:22:51.902Z,4.20
2023-04-05T13:25:20.132Z,3.63
2023-04-05T13:27:50.125Z,4.03
2023-04-05T13:30:18.882Z,4.20
2023-04-05T13:32:48.429Z,3.50
2023-04-05T13:35:16.932Z,3.83
2023-04-05T13:37:45.510Z,4.40
2023-04-05T13:40:13.875Z,4.77
2023-04-05T13:42:42.503Z,4.00
2023-04-05T13:45:13.424Z,4.13
2023-04-05T13:47:42.055Z,3.70
2023-04-05T13:50:11.031Z,3.87
2023-04-05T13:52:39.225Z,4.03
2023-04-05T13:55:08.729Z,3.70
2023-04-05T13:57:37.267Z,4.37
2023-04-05T14:00:07.345Z,3.57
2023-04-05T14:02:43.869Z,4.23
2023-04-05T14:05:37.424Z,4.00
2023-04-05T14:08:05.748Z,3.93
2023-04-05T14:10:33.997Z,3.97
2023-04-05T14:13:02.781Z,3.97
2023-04-05T14:15:30.972Z,3.60
2023-04-05T14:18:01.589Z,3.63
2023-04-05T14:20:31.777Z,3.97
2023-04-05T14:23:01.862Z,3.97
2023-04-05T14:25:30.582Z,3.70
2023-04-05T14:27:58.656Z,4.00
2023-04-05T14:30:27.186Z,3.67
2023-04-05T14:32:55.275Z,3.83
2023-04-05T14:35:25.064Z,4.00
2023-04-05T14:37:54.431Z,3.83
2023-04-05T14:40:22.578Z,4.37
2023-04-05T14:42:50.885Z,3.60
2023-04-05T14:45:19.783Z,3.97
2023-04-05T14:47:48.069Z,3.73
2023-04-05T14:50:16.756Z,3.90
2023-04-05T14:52:46.417Z,4.20
2023-04-05T14:55:16.404Z,4.13
2023-04-05T14:57:44.747Z,4.17
2023-04-05T15:00:14.703Z,4.17
2023-04-05T15:02:43.290Z,3.83
2023-04-05T15:05:11.889Z,3.67
2023-04-05T15:07:40.241Z,4.00
2023-04-05T15:10:11.350Z,4.10
2023-04-05T15:12:40.053Z,3.90
2023-04-05T15:15:09.504Z,4.17
2023-04-05T15:17:39.280Z,4.00
2023-04-05T15:20:09.593Z,4.00
2023-04-05T15:22:40.753Z,3.63
2023-04-05T15:25:12.048Z,3.90
2023-04-05T15:27:40.740Z,4.03
2023-04-05T15:30:12.978Z,3.93
2023-04-05T15:32:41.355Z,4.30
2023-04-05T15:35:10.492Z,3.87
2023-04-05T15:37:39.213Z,3.67
2023-04-05T15:40:10.773Z,4.60
2023-04-05T15:42:40.740Z,4.17
2023-04-05T15:45:10.787Z,3.87
2023-04-05T15:47:40.260Z,3.80
2023-04-05T15:50:09.287Z,4.37
2023-04-05T15:52:37.571Z,3.70
2023-04-05T15:55:07.446Z,4.77
2023-04-05T15:57:37.685Z,4.47
2023-04-05T16:00:08.560Z,4.80
2023-04-05T16:02:38.375Z,3.60
2023-04-05T16:05:07.378Z,4.00
2023-04-05T16:07:36.853Z,3.80
2023-04-05T16:10:06.927Z,3.97
2023-04-05T16:12:37.013Z,4.20
2023-04-05T16:15:06.718Z,3.80
2023-04-05T16:17:35.733Z,4.07
2023-04-05T16:20:05.271Z,3.97
2023-04-05T16:22:33.629Z,3.97
2023-04-05T16:25:02.211Z,3.50
2023-04-05T16:27:30.446Z,3.87
2023-04-05T16:30:03.267Z,3.60
2023-04-05T16:32:31.397Z,3.73
2023-04-05T16:34:59.680Z,4.20
2023-04-05T16:37:27.722Z,3.40
2023-04-05T16:39:55.935Z,3.37
2023-04-05T16:42:23.987Z,3.43
2023-04-05T16:44:52.632Z,3.83
2023-04-05T16:47:22.036Z,3.80
2023-04-05T16:49:56.523Z,3.90
2023-04-05T16:52:24.766Z,3.93
2023-04-05T16:54:52.828Z,3.60
2023-04-05T16:57:21.108Z,3.57
2023-04-05T16:59:49.123Z,4.10
2023-04-05T17:02:17.966Z,3.83
2023-04-05T17:04:47.968Z,4.17
2023-04-05T17:07:15.977Z,3.90
2023-04-05T17:09:44.034Z,4.13
2023-04-05T17:12:12.503Z,3.30
2023-04-05T17:14:40.640Z,4.10
2023-04-05T17:17:09.207Z,3.27
2023-04-05T17:19:37.274Z,4.70
2023-04-05T17:22:06.829Z,3.67
2023-04-05T17:24:35.963Z,4.33
2023-04-05T17:27:04.767Z,4.13
2023-04-05T17:29:32.949Z,5.43
2023-04-05T17:32:01.220Z,4.73
2023-04-05T17:34:29.288Z,4.03
2023-04-05T17:36:57.373Z,3.77
2023-04-05T17:39:26.841Z,3.30
2023-04-05T17:41:56.598Z,4.03
2023-04-05T17:44:24.774Z,5.67
2023-04-05T17:47:05.390Z,4.23
2023-04-05T17:49:37.475Z,4.07
2023-04-05T17:52:08.307Z,3.70
2023-04-05T17:54:39.625Z,3.77
2023-04-05T17:57:14.849Z,3.90
2023-04-05T17:59:43.160Z,3.10
2023-04-05T18:02:11.569Z,3.93
2023-04-05T18:04:40.112Z,3.97
2023-04-05T18:07:08.843Z,3.53
2023-04-05T18:09:41.782Z,3.90
2023-04-05T18:12:10.174Z,3.87
2023-04-05T18:14:38.423Z,4.07
2023-04-05T18:17:07.064Z,3.97
2023-04-05T18:19:35.753Z,3.83
2023-04-05T18:22:04.218Z,3.47
2023-04-05T18:24:32.558Z,3.43
2023-04-05T18:27:02.141Z,3.27
2023-04-05T18:29:30.807Z,3.23
2023-04-05T18:31:59.108Z,3.90
2023-04-05T18:34:27.400Z,3.90
2023-04-05T18:36:56.219Z,4.00
2023-04-05T18:39:27.376Z,4.27
2023-04-05T18:41:55.876Z,3.40
2023-04-05T18:44:26.275Z,3.73
2023-04-05T18:46:54.406Z,3.57
2023-04-05T18:49:22.603Z,3.43
2023-04-05T18:51:50.823Z,3.97
2023-04-05T18:54:19.213Z,4.53
2023-04-05T18:56:47.279Z,4.10
2023-04-05T18:59:16.326Z,3.97
2023-04-05T19:01:46.697Z,4.60
2023-04-05T19:04:16.281Z,3.73
2023-04-05T19:06:44.418Z,3.93
2023-04-05T19:09:12.767Z,4.10
2023-04-05T19:11:41.287Z,5.47
2023-04-05T19:14:09.428Z,5.63
2023-04-05T19:16:37.589Z,5.40
2023-04-05T19:19:07.406Z,6.13
2023-04-05T19:21:35.862Z,5.77
2023-04-05T19:24:04.218Z,9.47
2023-04-05T19:26:33.757Z,5.67
2023-04-05T19:29:01.848Z,5.57
2023-04-05T19:31:30.900Z,6.47
2023-04-05T19:33:59.794Z,6.57
2023-04-05T19:36:29.664Z,5.77
2023-04-05T19:38:57.729Z,6.10
2023-04-05T19:41:29.751Z,5.67
2023-04-05T19:43:57.920Z,7.53
2023-04-05T19:46:28.781Z,7.43
2023-04-05T19:48:58.907Z,4.77
2023-04-05T19:51:29.673Z,4.63
2023-04-05T19:53:59.980Z,5.17
2023-04-05T19:56:32.311Z,4.10
2023-04-05T19:59:02.963Z,3.40
2023-04-05T20:01:35.385Z,3.63
2023-04-05T20:04:12.493Z,6.07
2023-04-05T20:06:43.361Z,10.43
2023-04-05T20:09:13.457Z,9.93
2023-04-05T20:11:42.088Z,7.10
2023-04-05T20:14:10.361Z,6.70
2023-04-05T20:16:38.995Z,8.20
2023-04-05T20:19:09.844Z,3.93
2023-04-05T20:21:38.911Z,3.23
2023-04-05T20:24:13.239Z,3.27
2023-04-05T20:26:41.478Z,3.30
2023-04-05T20:29:11.857Z,3.50
2023-04-05T20:31:40.263Z,4.50
2023-04-05T20:34:12.054Z,4.63
2023-04-05T20:36:48.432Z,3.73
2023-04-05T20:39:17.974Z,3.90
2023-04-05T20:41:47.843Z,3.73
2023-04-05T20:44:16.802Z,3.30
2023-04-05T20:46:44.995Z,3.70
2023-04-05T20:49:13.212Z,3.20
2023-04-05T20:51:42.683Z,3.20
2023-04-05T20:54:11.410Z,3.97
2023-04-05T20:56:40.941Z,3.30
2023-04-05T20:59:09.336Z,4.07
2023-04-05T21:01:38.265Z,3.97
2023-04-05T21:04:07.214Z,4.10
2023-04-05T21:06:36.670Z,4.33
2023-04-05T21:09:05.081Z,4.10
2023-04-05T21:11:33.294Z,3.37
2023-04-05T21:14:02.700Z,3.80
2023-04-05T21:16:31.445Z,3.00
2023-04-05T21:18:59.553Z,3.90
2023-04-05T21:21:27.843Z,4.17
2023-04-05T21:23:55.968Z,3.67
2023-04-05T21:26:24.068Z,4.20
2023-04-05T21:28:52.101Z,4.13
2023-04-05T21:31:27.684Z,3.40
2023-04-05T21:33:55.783Z,3.23
2023-04-05T21:36:23.890Z,3.53
2023-04-05T21:38:52.077Z,3.90
2023-04-05T21:41:20.099Z,4.10
2023-04-05T21:43:48.176Z,3.47
2023-04-05T21:46:16.271Z,3.97
2023-04-05T21:48:45.808Z,3.90
2023-04-05T21:51:13.846Z,3.90
2023-04-05T21:53:41.895Z,4.40
2023-04-05T21:56:09.949Z,4.50
2023-04-05T21:58:37.951Z,4.20
2023-04-05T22:01:08.068Z,4.60
2023-04-05T22:03:36.215Z,4.43
2023-04-05T22:06:05.991Z,4.57
2023-04-05T22:08:35.092Z,4.57
2023-04-05T22:11:03.340Z,4.50
2023-04-05T22:13:31.469Z,4.63
2023-04-05T22:15:59.643Z,4.13
2023-04-05T22:18:28.950Z,4.67
2023-04-05T22:20:57.069Z,4.23
2023-04-05T22:23:26.513Z,4.63
2023-04-05T22:25:54.639Z,4.20
2023-04-05T22:28:22.917Z,4.87
2023-04-05T22:30:51.193Z,4.50
2023-04-05T22:33:19.241Z,4.53
2023-04-05T22:35:47.322Z,4.40
2023-04-05T22:38:15.418Z,4.90
2023-04-05T22:40:46.323Z,5.67
2023-04-05T22:43:14.689Z,5.27
2023-04-05T22:45:42.759Z,5.00
2023-04-05T22:48:10.883Z,5.63
2023-04-05T22:50:39.024Z,5.17
2023-04-05T22:53:08.350Z,4.50
2023-04-05T22:55:37.409Z,5.20
2023-04-05T22:58:13.441Z,5.60
2023-04-05T23:00:41.607Z,5.10
2023-04-05T23:03:09.924Z,5.07
2023-04-05T23:05:38.505Z,5.00
2023-04-05T23:08:06.743Z,5.13
2023-04-05T23:10:34.838Z,4.70
2023-04-05T23:13:02.896Z,5.27
2023-04-05T23:15:32.413Z,5.40
2023-04-05T23:18:00.590Z,4.90
2023-04-05T23:20:28.643Z,5.10
2023-04-05T23:22:56.788Z,4.70
2023-04-05T23:25:24.929Z,4.57
2023-04-05T23:27:53.828Z,4.57
2023-04-05T23:30:21.937Z,5.50
2023-04-05T23:32:51.360Z,4.00
2023-04-05T23:35:19.512Z,4.57
2023-04-05T23:37:47.579Z,5.00
2023-04-05T23:40:16.140Z,5.70
2023-04-05T23:42:44.195Z,4.90
2023-04-05T23:45:12.636Z,5.27
2023-04-05T23:47:40.751Z,5.03
2023-04-05T23:50:11.515Z,5.47
2023-04-05T23:52:39.574Z,4.80
2023-04-05T23:55:08.840Z,5.33
2023-04-05T23:57:36.942Z,5.30
